sensor_id;sensor_type;location;lat;lon;timestamp;P1;durP1;ratioP1;P2;durP2;ratioP2
68583;SDS011;55557;49.220;11.150;2023-08-06T00:00:42;5.60;;;2.93;;
68583;SDS011;55557;49.220;11.150;2023-08-06T00:03:08;5.13;;;3.20;;
68583;SDS011;55557;49.220;11.150;2023-08-06T00:05:34;4.33;;;2.80;;
68583;SDS011;55557;49.220;11.150;2023-08-06T00:08:00;5.57;;;3.07;;
68583;SDS011;55557;49.220;11.150;2023-08-06T00:10:26;7.77;;;3.20;;
68583;SDS011;55557;49.220;11.150;2023-08-06T00:12:52;4.20;;;2.63;;
68583;SDS011;55557;49.220;11.150;2023-08-06T00:15:18;4.43;;;2.90;;
68583;SDS011;55557;49.220;11.150;2023-08-06T00:17:44;4.00;;;3.03;;
68583;SDS011;55557;49.220;11.150;2023-08-06T00:20:10;3.77;;;3.20;;
68583;SDS011;55557;49.220;11.150;2023-08-06T00:22:36;5.30;;;2.90;;
68583;SDS011;55557;49.220;11.150;2023-08-06T00:25:03;4.97;;;3.23;;
68583;SDS011;55557;49.220;11.150;2023-08-06T00:27:29;4.30;;;3.00;;
68583;SDS011;55557;49.220;11.150;2023-08-06T00:29:55;6.30;;;3.17;;
68583;SDS011;55557;49.220;11.150;2023-08-06T00:32:21;4.97;;;3.00;;
68583;SDS011;55557;49.220;11.150;2023-08-06T00:34:48;4.10;;;3.17;;
68583;SDS011;55557;49.220;11.150;2023-08-06T00:37:17;3.77;;;2.97;;
68583;SDS011;55557;49.220;11.150;2023-08-06T00:39:43;8.30;;;3.63;;
68583;SDS011;55557;49.220;11.150;2023-08-06T00:42:10;3.60;;;2.77;;
68583;SDS011;55557;49.220;11.150;2023-08-06T00:44:36;4.77;;;3.30;;
68583;SDS011;55557;49.220;11.150;2023-08-06T00:47:02;3.83;;;3.00;;
68583;SDS011;55557;49.220;11.150;2023-08-06T00:49:29;4.40;;;3.07;;
68583;SDS011;55557;49.220;11.150;2023-08-06T00:51:55;3.00;;;2.70;;
68583;SDS011;55557;49.220;11.150;2023-08-06T00:54:22;4.97;;;3.33;;
68583;SDS011;55557;49.220;11.150;2023-08-06T00:56:49;5.87;;;3.40;;
68583;SDS011;55557;49.220;11.150;2023-08-06T00:59:15;3.90;;;3.00;;
68583;SDS011;55557;49.220;11.150;2023-08-06T01:01:41;6.33;;;3.20;;
68583;SDS011;55557;49.220;11.150;2023-08-06T01:04:07;4.70;;;3.53;;
68583;SDS011;55557;49.220;11.150;2023-08-06T01:09:01;7.77;;;4.00;;
68583;SDS011;55557;49.220;11.150;2023-08-06T01:12:31;5.00;;;3.43;;
68583;SDS011;55557;49.220;11.150;2023-08-06T01:16:51;3.87;;;3.47;;
68583;SDS011;55557;49.220;11.150;2023-08-06T01:19:17;5.87;;;3.80;;
68583;SDS011;55557;49.220;11.150;2023-08-06T01:21:43;4.00;;;3.23;;
68583;SDS011;55557;49.220;11.150;2023-08-06T01:24:09;5.33;;;3.47;;
68583;SDS011;55557;49.220;11.150;2023-08-06T01:26:41;4.17;;;3.60;;
68583;SDS011;55557;49.220;11.150;2023-08-06T01:29:23;5.00;;;3.53;;
68583;SDS011;55557;49.220;11.150;2023-08-06T01:31:51;5.13;;;3.70;;
68583;SDS011;55557;49.220;11.150;2023-08-06T01:34:21;4.17;;;3.40;;
68583;SDS011;55557;49.220;11.150;2023-08-06T01:36:48;4.20;;;3.37;;
68583;SDS011;55557;49.220;11.150;2023-08-06T01:39:14;6.20;;;3.80;;
68583;SDS011;55557;49.220;11.150;2023-08-06T01:41:40;3.80;;;3.13;;
68583;SDS011;55557;49.220;11.150;2023-08-06T01:44:06;9.47;;;3.80;;
68583;SDS011;55557;49.220;11.150;2023-08-06T01:46:32;4.27;;;3.67;;
68583;SDS011;55557;49.220;11.150;2023-08-06T01:48:59;4.13;;;3.67;;
68583;SDS011;55557;49.220;11.150;2023-08-06T01:51:25;4.50;;;3.23;;
68583;SDS011;55557;49.220;11.150;2023-08-06T01:53:53;5.30;;;3.73;;
68583;SDS011;55557;49.220;11.150;2023-08-06T01:56:19;5.97;;;3.67;;
68583;SDS011;55557;49.220;11.150;2023-08-06T01:58:47;5.30;;;3.97;;
68583;SDS011;55557;49.220;11.150;2023-08-06T02:01:14;6.00;;;4.27;;
68583;SDS011;55557;49.220;11.150;2023-08-06T02:03:40;4.10;;;3.70;;
68583;SDS011;55557;49.220;11.150;2023-08-06T02:06:06;6.70;;;3.73;;
68583;SDS011;55557;49.220;11.150;2023-08-06T02:08:32;5.37;;;3.37;;
68583;SDS011;55557;49.220;11.150;2023-08-06T02:10:58;3.87;;;3.20;;
68583;SDS011;55557;49.220;11.150;2023-08-06T02:13:24;4.70;;;3.57;;
68583;SDS011;55557;49.220;11.150;2023-08-06T02:15:50;5.70;;;3.80;;
68583;SDS011;55557;49.220;11.150;2023-08-06T02:18:17;9.37;;;3.10;;
68583;SDS011;55557;49.220;11.150;2023-08-06T02:20:43;4.90;;;3.40;;
68583;SDS011;55557;49.220;11.150;2023-08-06T02:23:10;4.13;;;3.57;;
68583;SDS011;55557;49.220;11.150;2023-08-06T02:25:36;3.10;;;2.80;;
68583;SDS011;55557;49.220;11.150;2023-08-06T02:28:02;3.07;;;2.67;;
68583;SDS011;55557;49.220;11.150;2023-08-06T02:30:28;6.03;;;3.27;;
68583;SDS011;55557;49.220;11.150;2023-08-06T02:32:55;6.87;;;3.73;;
68583;SDS011;55557;49.220;11.150;2023-08-06T02:35:22;5.40;;;3.33;;
68583;SDS011;55557;49.220;11.150;2023-08-06T02:37:48;3.23;;;2.90;;
68583;SDS011;55557;49.220;11.150;2023-08-06T02:40:14;4.47;;;2.70;;
68583;SDS011;55557;49.220;11.150;2023-08-06T02:42:40;4.93;;;2.83;;
68583;SDS011;55557;49.220;11.150;2023-08-06T02:45:06;3.33;;;2.77;;
68583;SDS011;55557;49.220;11.150;2023-08-06T02:47:32;3.30;;;2.60;;
68583;SDS011;55557;49.220;11.150;2023-08-06T02:49:58;4.60;;;3.00;;
68583;SDS011;55557;49.220;11.150;2023-08-06T02:52:24;4.13;;;3.03;;
68583;SDS011;55557;49.220;11.150;2023-08-06T02:54:50;4.00;;;3.60;;
68583;SDS011;55557;49.220;11.150;2023-08-06T02:57:16;4.47;;;3.30;;
68583;SDS011;55557;49.220;11.150;2023-08-06T02:59:42;4.47;;;3.30;;
68583;SDS011;55557;49.220;11.150;2023-08-06T03:02:08;5.63;;;3.17;;
68583;SDS011;55557;49.220;11.150;2023-08-06T03:04:34;4.60;;;3.30;;
68583;SDS011;55557;49.220;11.150;2023-08-06T03:07:01;3.87;;;3.10;;
68583;SDS011;55557;49.220;11.150;2023-08-06T03:09:28;3.30;;;3.00;;
68583;SDS011;55557;49.220;11.150;2023-08-06T03:11:54;6.87;;;3.57;;
68583;SDS011;55557;49.220;11.150;2023-08-06T03:14:20;3.33;;;2.90;;
68583;SDS011;55557;49.220;11.150;2023-08-06T03:16:46;6.03;;;3.80;;
68583;SDS011;55557;49.220;11.150;2023-08-06T03:19:12;5.30;;;3.27;;
68583;SDS011;55557;49.220;11.150;2023-08-06T03:21:38;3.10;;;2.77;;
68583;SDS011;55557;49.220;11.150;2023-08-06T03:24:04;4.27;;;3.13;;
68583;SDS011;55557;49.220;11.150;2023-08-06T03:26:30;2.90;;;2.60;;
68583;SDS011;55557;49.220;11.150;2023-08-06T03:28:56;3.47;;;2.83;;
68583;SDS011;55557;49.220;11.150;2023-08-06T03:31:22;4.77;;;3.37;;
68583;SDS011;55557;49.220;11.150;2023-08-06T03:33:48;3.67;;;2.80;;
68583;SDS011;55557;49.220;11.150;2023-08-06T03:36:14;4.40;;;3.03;;
68583;SDS011;55557;49.220;11.150;2023-08-06T03:38:40;3.97;;;3.07;;
68583;SDS011;55557;49.220;11.150;2023-08-06T03:41:06;3.87;;;2.97;;
68583;SDS011;55557;49.220;11.150;2023-08-06T03:43:32;4.00;;;2.90;;
68583;SDS011;55557;49.220;11.150;2023-08-06T03:45:58;6.60;;;3.10;;
68583;SDS011;55557;49.220;11.150;2023-08-06T03:48:24;6.43;;;3.23;;
68583;SDS011;55557;49.220;11.150;2023-08-06T03:50:50;6.47;;;3.00;;
68583;SDS011;55557;49.220;11.150;2023-08-06T03:53:16;8.53;;;3.43;;
68583;SDS011;55557;49.220;11.150;2023-08-06T03:55:47;3.53;;;2.70;;
68583;SDS011;55557;49.220;11.150;2023-08-06T03:58:13;3.47;;;2.93;;
68583;SDS011;55557;49.220;11.150;2023-08-06T04:00:39;2.80;;;2.50;;
68583;SDS011;55557;49.220;11.150;2023-08-06T04:03:05;3.27;;;2.97;;
68583;SDS011;55557;49.220;11.150;2023-08-06T04:05:31;3.87;;;2.57;;
68583;SDS011;55557;49.220;11.150;2023-08-06T04:07:58;3.83;;;2.80;;
68583;SDS011;55557;49.220;11.150;2023-08-06T04:10:24;2.93;;;2.60;;
68583;SDS011;55557;49.220;11.150;2023-08-06T04:12:51;3.20;;;2.63;;
68583;SDS011;55557;49.220;11.150;2023-08-06T04:15:17;4.13;;;3.17;;
68583;SDS011;55557;49.220;11.150;2023-08-06T04:17:43;5.00;;;2.70;;
68583;SDS011;55557;49.220;11.150;2023-08-06T04:20:09;4.73;;;2.37;;
68583;SDS011;55557;49.220;11.150;2023-08-06T04:22:35;4.17;;;2.60;;
68583;SDS011;55557;49.220;11.150;2023-08-06T04:25:01;3.20;;;2.83;;
68583;SDS011;55557;49.220;11.150;2023-08-06T04:27:27;2.97;;;2.30;;
68583;SDS011;55557;49.220;11.150;2023-08-06T04:29:53;3.13;;;2.47;;
68583;SDS011;55557;49.220;11.150;2023-08-06T04:32:20;2.60;;;2.23;;
68583;SDS011;55557;49.220;11.150;2023-08-06T04:34:46;4.23;;;3.37;;
68583;SDS011;55557;49.220;11.150;2023-08-06T04:37:12;2.83;;;2.60;;
68583;SDS011;55557;49.220;11.150;2023-08-06T04:39:39;4.63;;;3.13;;
68583;SDS011;55557;49.220;11.150;2023-08-06T04:42:05;2.90;;;2.57;;
68583;SDS011;55557;49.220;11.150;2023-08-06T04:44:31;3.60;;;2.97;;
68583;SDS011;55557;49.220;11.150;2023-08-06T04:46:57;6.23;;;2.83;;
68583;SDS011;55557;49.220;11.150;2023-08-06T04:49:24;4.03;;;2.70;;
68583;SDS011;55557;49.220;11.150;2023-08-06T04:51:50;5.10;;;2.80;;
68583;SDS011;55557;49.220;11.150;2023-08-06T04:54:16;2.70;;;2.43;;
68583;SDS011;55557;49.220;11.150;2023-08-06T04:56:42;7.73;;;2.33;;
68583;SDS011;55557;49.220;11.150;2023-08-06T04:59:08;3.70;;;2.90;;
68583;SDS011;55557;49.220;11.150;2023-08-06T05:01:34;4.50;;;3.20;;
68583;SDS011;55557;49.220;11.150;2023-08-06T05:04:00;3.40;;;2.90;;
68583;SDS011;55557;49.220;11.150;2023-08-06T05:06:26;5.23;;;2.83;;
68583;SDS011;55557;49.220;11.150;2023-08-06T05:08:53;6.67;;;3.20;;
68583;SDS011;55557;49.220;11.150;2023-08-06T05:11:19;4.13;;;3.20;;
68583;SDS011;55557;49.220;11.150;2023-08-06T05:13:45;5.93;;;2.93;;
68583;SDS011;55557;49.220;11.150;2023-08-06T05:16:11;3.37;;;2.60;;
68583;SDS011;55557;49.220;11.150;2023-08-06T05:18:37;5.10;;;2.97;;
68583;SDS011;55557;49.220;11.150;2023-08-06T05:21:03;3.33;;;2.53;;
68583;SDS011;55557;49.220;11.150;2023-08-06T05:23:29;3.10;;;2.70;;
68583;SDS011;55557;49.220;11.150;2023-08-06T05:25:55;3.13;;;2.80;;
68583;SDS011;55557;49.220;11.150;2023-08-06T05:28:21;4.13;;;2.97;;
68583;SDS011;55557;49.220;11.150;2023-08-06T05:30:50;8.23;;;3.17;;
68583;SDS011;55557;49.220;11.150;2023-08-06T05:33:16;5.30;;;3.00;;
68583;SDS011;55557;49.220;11.150;2023-08-06T05:35:44;8.70;;;3.30;;
68583;SDS011;55557;49.220;11.150;2023-08-06T05:38:10;2.53;;;2.30;;
68583;SDS011;55557;49.220;11.150;2023-08-06T05:40:36;4.77;;;4.27;;
68583;SDS011;55557;49.220;11.150;2023-08-06T05:43:02;3.60;;;2.77;;
68583;SDS011;55557;49.220;11.150;2023-08-06T05:45:28;5.17;;;3.10;;
68583;SDS011;55557;49.220;11.150;2023-08-06T05:47:54;4.73;;;3.40;;
68583;SDS011;55557;49.220;11.150;2023-08-06T05:50:23;6.43;;;3.20;;
68583;SDS011;55557;49.220;11.150;2023-08-06T05:52:49;5.40;;;3.37;;
68583;SDS011;55557;49.220;11.150;2023-08-06T05:55:15;9.40;;;3.13;;
68583;SDS011;55557;49.220;11.150;2023-08-06T05:57:41;4.13;;;3.40;;
68583;SDS011;55557;49.220;11.150;2023-08-06T06:00:07;6.97;;;4.07;;
68583;SDS011;55557;49.220;11.150;2023-08-06T06:02:33;4.87;;;4.00;;
68583;SDS011;55557;49.220;11.150;2023-08-06T06:05:00;4.77;;;3.90;;
68583;SDS011;55557;49.220;11.150;2023-08-06T06:07:26;7.03;;;4.67;;
68583;SDS011;55557;49.220;11.150;2023-08-06T06:09:52;4.10;;;3.70;;
68583;SDS011;55557;49.220;11.150;2023-08-06T06:12:18;4.33;;;3.60;;
68583;SDS011;55557;49.220;11.150;2023-08-06T06:14:44;7.03;;;4.60;;
68583;SDS011;55557;49.220;11.150;2023-08-06T06:17:10;5.17;;;4.27;;
68583;SDS011;55557;49.220;11.150;2023-08-06T06:19:36;6.20;;;3.87;;
68583;SDS011;55557;49.220;11.150;2023-08-06T06:22:02;4.93;;;4.20;;
68583;SDS011;55557;49.220;11.150;2023-08-06T06:24:28;6.23;;;4.47;;
68583;SDS011;55557;49.220;11.150;2023-08-06T06:26:54;5.60;;;4.07;;
68583;SDS011;55557;49.220;11.150;2023-08-06T06:29:20;5.17;;;4.27;;
68583;SDS011;55557;49.220;11.150;2023-08-06T06:31:46;6.37;;;4.00;;
68583;SDS011;55557;49.220;11.150;2023-08-06T06:34:12;4.60;;;4.10;;
68583;SDS011;55557;49.220;11.150;2023-08-06T06:36:38;5.80;;;4.50;;
68583;SDS011;55557;49.220;11.150;2023-08-06T06:39:04;6.80;;;4.80;;
68583;SDS011;55557;49.220;11.150;2023-08-06T06:41:30;5.37;;;4.20;;
68583;SDS011;55557;49.220;11.150;2023-08-06T06:43:58;4.57;;;4.17;;
68583;SDS011;55557;49.220;11.150;2023-08-06T06:46:24;5.73;;;4.60;;
68583;SDS011;55557;49.220;11.150;2023-08-06T06:48:50;6.60;;;4.70;;
68583;SDS011;55557;49.220;11.150;2023-08-06T06:51:16;5.10;;;4.43;;
68583;SDS011;55557;49.220;11.150;2023-08-06T06:53:42;6.23;;;4.70;;
68583;SDS011;55557;49.220;11.150;2023-08-06T06:56:08;5.57;;;4.00;;
68583;SDS011;55557;49.220;11.150;2023-08-06T06:58:34;6.10;;;4.47;;
68583;SDS011;55557;49.220;11.150;2023-08-06T07:01:00;7.03;;;4.10;;
68583;SDS011;55557;49.220;11.150;2023-08-06T07:03:26;8.90;;;3.93;;
68583;SDS011;55557;49.220;11.150;2023-08-06T07:05:56;6.23;;;4.20;;
68583;SDS011;55557;49.220;11.150;2023-08-06T07:08:23;7.67;;;3.73;;
68583;SDS011;55557;49.220;11.150;2023-08-06T07:10:49;5.93;;;4.17;;
68583;SDS011;55557;49.220;11.150;2023-08-06T07:13:15;7.43;;;4.60;;
68583;SDS011;55557;49.220;11.150;2023-08-06T07:15:42;5.23;;;3.80;;
68583;SDS011;55557;49.220;11.150;2023-08-06T07:18:08;11.07;;;4.10;;
68583;SDS011;55557;49.220;11.150;2023-08-06T07:20:34;7.17;;;4.00;;
68583;SDS011;55557;49.220;11.150;2023-08-06T07:23:00;6.40;;;3.93;;
68583;SDS011;55557;49.220;11.150;2023-08-06T07:25:27;11.50;;;4.20;;
68583;SDS011;55557;49.220;11.150;2023-08-06T07:27:52;5.10;;;3.97;;
68583;SDS011;55557;49.220;11.150;2023-08-06T07:30:21;4.40;;;3.63;;
68583;SDS011;55557;49.220;11.150;2023-08-06T07:32:47;7.43;;;4.00;;
68583;SDS011;55557;49.220;11.150;2023-08-06T07:35:13;6.10;;;4.00;;
68583;SDS011;55557;49.220;11.150;2023-08-06T07:37:39;6.63;;;3.87;;
68583;SDS011;55557;49.220;11.150;2023-08-06T07:40:06;4.20;;;3.50;;
68583;SDS011;55557;49.220;11.150;2023-08-06T07:42:32;4.83;;;3.40;;
68583;SDS011;55557;49.220;11.150;2023-08-06T07:44:58;6.03;;;3.60;;
68583;SDS011;55557;49.220;11.150;2023-08-06T07:47:24;6.80;;;3.23;;
68583;SDS011;55557;49.220;11.150;2023-08-06T07:49:50;13.03;;;3.53;;
68583;SDS011;55557;49.220;11.150;2023-08-06T07:52:16;5.60;;;3.53;;
68583;SDS011;55557;49.220;11.150;2023-08-06T07:54:43;6.17;;;3.57;;
68583;SDS011;55557;49.220;11.150;2023-08-06T07:57:09;5.20;;;3.43;;
68583;SDS011;55557;49.220;11.150;2023-08-06T07:59:35;4.70;;;3.33;;
68583;SDS011;55557;49.220;11.150;2023-08-06T08:02:01;6.37;;;2.90;;
68583;SDS011;55557;49.220;11.150;2023-08-06T08:04:27;5.20;;;3.13;;
68583;SDS011;55557;49.220;11.150;2023-08-06T08:06:53;4.30;;;2.90;;
68583;SDS011;55557;49.220;11.150;2023-08-06T08:09:19;7.43;;;3.50;;
68583;SDS011;55557;49.220;11.150;2023-08-06T08:11:45;3.70;;;2.70;;
68583;SDS011;55557;49.220;11.150;2023-08-06T08:14:12;5.73;;;2.63;;
68583;SDS011;55557;49.220;11.150;2023-08-06T08:16:38;4.37;;;2.63;;
68583;SDS011;55557;49.220;11.150;2023-08-06T08:19:04;4.23;;;2.43;;
68583;SDS011;55557;49.220;11.150;2023-08-06T08:21:30;3.03;;;1.90;;
68583;SDS011;55557;49.220;11.150;2023-08-06T08:23:56;4.43;;;2.20;;
68583;SDS011;55557;49.220;11.150;2023-08-06T08:26:22;2.53;;;2.07;;
68583;SDS011;55557;49.220;11.150;2023-08-06T08:28:48;3.13;;;1.80;;
68583;SDS011;55557;49.220;11.150;2023-08-06T08:31:14;3.13;;;2.20;;
68583;SDS011;55557;49.220;11.150;2023-08-06T08:33:41;2.97;;;2.00;;
68583;SDS011;55557;49.220;11.150;2023-08-06T08:36:07;3.07;;;1.77;;
68583;SDS011;55557;49.220;11.150;2023-08-06T08:38:34;3.17;;;1.77;;
68583;SDS011;55557;49.220;11.150;2023-08-06T08:41:00;1.77;;;1.40;;
68583;SDS011;55557;49.220;11.150;2023-08-06T08:43:27;2.73;;;1.50;;
68583;SDS011;55557;49.220;11.150;2023-08-06T08:45:53;10.70;;;1.73;;
68583;SDS011;55557;49.220;11.150;2023-08-06T08:48:24;6.80;;;0.73;;
68583;SDS011;55557;49.220;11.150;2023-08-06T08:50:51;2.00;;;1.10;;
68583;SDS011;55557;49.220;11.150;2023-08-06T08:53:17;2.27;;;1.30;;
68583;SDS011;55557;49.220;11.150;2023-08-06T08:55:46;1.90;;;0.93;;
68583;SDS011;55557;49.220;11.150;2023-08-06T08:58:12;1.47;;;1.27;;
68583;SDS011;55557;49.220;11.150;2023-08-06T09:00:39;1.10;;;1.00;;
68583;SDS011;55557;49.220;11.150;2023-08-06T09:03:07;1.37;;;1.10;;
68583;SDS011;55557;49.220;11.150;2023-08-06T09:05:33;1.20;;;0.90;;
68583;SDS011;55557;49.220;11.150;2023-08-06T09:08:03;3.77;;;0.97;;
68583;SDS011;55557;49.220;11.150;2023-08-06T09:10:29;0.80;;;0.77;;
68583;SDS011;55557;49.220;11.150;2023-08-06T09:12:56;22.60;;;1.53;;
68583;SDS011;55557;49.220;11.150;2023-08-06T09:15:25;14.70;;;1.87;;
68583;SDS011;55557;49.220;11.150;2023-08-06T09:17:52;1.33;;;1.03;;
68583;SDS011;55557;49.220;11.150;2023-08-06T09:20:18;2.47;;;1.03;;
68583;SDS011;55557;49.220;11.150;2023-08-06T09:22:44;2.30;;;0.87;;
68583;SDS011;55557;49.220;11.150;2023-08-06T09:25:12;0.90;;;0.80;;
68583;SDS011;55557;49.220;11.150;2023-08-06T09:27:46;0.97;;;0.80;;
68583;SDS011;55557;49.220;11.150;2023-08-06T09:30:12;2.17;;;0.80;;
68583;SDS011;55557;49.220;11.150;2023-08-06T09:32:54;0.80;;;0.80;;
68583;SDS011;55557;49.220;11.150;2023-08-06T09:35:21;2.03;;;1.00;;
68583;SDS011;55557;49.220;11.150;2023-08-06T09:37:47;0.80;;;0.70;;
68583;SDS011;55557;49.220;11.150;2023-08-06T09:40:29;0.67;;;0.47;;
68583;SDS011;55557;49.220;11.150;2023-08-06T09:42:56;1.40;;;0.80;;
68583;SDS011;55557;49.220;11.150;2023-08-06T09:45:22;1.10;;;0.63;;
68583;SDS011;55557;49.220;11.150;2023-08-06T09:47:49;5.17;;;0.73;;
68583;SDS011;55557;49.220;11.150;2023-08-06T09:50:18;2.87;;;0.63;;
68583;SDS011;55557;49.220;11.150;2023-08-06T09:52:46;5.40;;;0.80;;
68583;SDS011;55557;49.220;11.150;2023-08-06T09:55:14;14.40;;;0.87;;
68583;SDS011;55557;49.220;11.150;2023-08-06T09:57:40;0.70;;;0.70;;
68583;SDS011;55557;49.220;11.150;2023-08-06T10:00:07;0.90;;;0.70;;
68583;SDS011;55557;49.220;11.150;2023-08-06T10:02:38;0.67;;;0.60;;
68583;SDS011;55557;49.220;11.150;2023-08-06T10:05:04;0.87;;;0.77;;
68583;SDS011;55557;49.220;11.150;2023-08-06T10:07:30;1.40;;;0.50;;
68583;SDS011;55557;49.220;11.150;2023-08-06T10:09:58;0.57;;;0.53;;
68583;SDS011;55557;49.220;11.150;2023-08-06T10:12:24;1.50;;;0.90;;
68583;SDS011;55557;49.220;11.150;2023-08-06T10:14:51;3.87;;;1.10;;
68583;SDS011;55557;49.220;11.150;2023-08-06T10:17:19;0.63;;;0.63;;
68583;SDS011;55557;49.220;11.150;2023-08-06T10:19:46;0.87;;;0.83;;
68583;SDS011;55557;49.220;11.150;2023-08-06T10:22:16;0.80;;;0.80;;
68583;SDS011;55557;49.220;11.150;2023-08-06T10:24:46;0.80;;;0.60;;
68583;SDS011;55557;49.220;11.150;2023-08-06T10:27:12;0.90;;;0.73;;
68583;SDS011;55557;49.220;11.150;2023-08-06T10:29:38;1.13;;;0.90;;
68583;SDS011;55557;49.220;11.150;2023-08-06T10:32:04;3.13;;;0.73;;
68583;SDS011;55557;49.220;11.150;2023-08-06T10:37:36;2.20;;;0.60;;
68583;SDS011;55557;49.220;11.150;2023-08-06T10:40:02;1.00;;;0.40;;
68583;SDS011;55557;49.220;11.150;2023-08-06T10:42:29;0.80;;;0.40;;
68583;SDS011;55557;49.220;11.150;2023-08-06T10:45:10;2.07;;;0.37;;
68583;SDS011;55557;49.220;11.150;2023-08-06T10:47:39;0.43;;;0.40;;
68583;SDS011;55557;49.220;11.150;2023-08-06T10:50:06;0.20;;;0.20;;
68583;SDS011;55557;49.220;11.150;2023-08-06T10:52:33;0.40;;;0.37;;
68583;SDS011;55557;49.220;11.150;2023-08-06T10:54:59;0.33;;;0.33;;
68583;SDS011;55557;49.220;11.150;2023-08-06T10:57:25;3.17;;;0.43;;
68583;SDS011;55557;49.220;11.150;2023-08-06T10:59:51;0.40;;;0.40;;
68583;SDS011;55557;49.220;11.150;2023-08-06T11:02:17;0.37;;;0.30;;
68583;SDS011;55557;49.220;11.150;2023-08-06T11:04:43;1.80;;;0.40;;
68583;SDS011;55557;49.220;11.150;2023-08-06T11:07:09;0.20;;;0.20;;
68583;SDS011;55557;49.220;11.150;2023-08-06T11:09:36;0.40;;;0.40;;
68583;SDS011;55557;49.220;11.150;2023-08-06T11:12:10;0.30;;;0.30;;
68583;SDS011;55557;49.220;11.150;2023-08-06T11:14:36;1.50;;;0.20;;
68583;SDS011;55557;49.220;11.150;2023-08-06T11:17:03;0.27;;;0.23;;
68583;SDS011;55557;49.220;11.150;2023-08-06T11:19:30;1.40;;;0.40;;
68583;SDS011;55557;49.220;11.150;2023-08-06T11:21:56;0.30;;;0.30;;
68583;SDS011;55557;49.220;11.150;2023-08-06T11:24:26;0.30;;;0.30;;
68583;SDS011;55557;49.220;11.150;2023-08-06T11:26:52;0.53;;;0.30;;
68583;SDS011;55557;49.220;11.150;2023-08-06T11:29:18;0.53;;;0.40;;
68583;SDS011;55557;49.220;11.150;2023-08-06T11:31:44;0.20;;;0.20;;
68583;SDS011;55557;49.220;11.150;2023-08-06T11:34:10;0.30;;;0.30;;
68583;SDS011;55557;49.220;11.150;2023-08-06T11:36:41;1.13;;;0.60;;
68583;SDS011;55557;49.220;11.150;2023-08-06T11:39:07;0.40;;;0.33;;
68583;SDS011;55557;49.220;11.150;2023-08-06T11:41:33;0.30;;;0.30;;
68583;SDS011;55557;49.220;11.150;2023-08-06T11:43:59;2.00;;;0.50;;
68583;SDS011;55557;49.220;11.150;2023-08-06T11:46:25;2.03;;;0.50;;
68583;SDS011;55557;49.220;11.150;2023-08-06T11:48:52;1.13;;;0.40;;
68583;SDS011;55557;49.220;11.150;2023-08-06T11:51:18;0.20;;;0.20;;
68583;SDS011;55557;49.220;11.150;2023-08-06T11:53:48;1.90;;;0.30;;
68583;SDS011;55557;49.220;11.150;2023-08-06T11:56:15;0.10;;;0.10;;
68583;SDS011;55557;49.220;11.150;2023-08-06T11:58:41;0.10;;;0.10;;
68583;SDS011;55557;49.220;11.150;2023-08-06T12:01:07;0.30;;;0.30;;
68583;SDS011;55557;49.220;11.150;2023-08-06T12:03:38;1.93;;;0.20;;
68583;SDS011;55557;49.220;11.150;2023-08-06T12:06:05;0.10;;;0.10;;
68583;SDS011;55557;49.220;11.150;2023-08-06T12:08:32;0.10;;;0.10;;
68583;SDS011;55557;49.220;11.150;2023-08-06T12:10:58;0.20;;;0.20;;
68583;SDS011;55557;49.220;11.150;2023-08-06T12:13:25;0.93;;;0.30;;
68583;SDS011;55557;49.220;11.150;2023-08-06T12:15:51;0.20;;;0.20;;
68583;SDS011;55557;49.220;11.150;2023-08-06T12:18:18;0.30;;;0.30;;
68583;SDS011;55557;49.220;11.150;2023-08-06T12:20:44;0.60;;;0.47;;
68583;SDS011;55557;49.220;11.150;2023-08-06T12:23:10;0.27;;;0.27;;
68583;SDS011;55557;49.220;11.150;2023-08-06T12:25:40;0.30;;;0.30;;
68583;SDS011;55557;49.220;11.150;2023-08-06T12:28:06;0.33;;;0.20;;
68583;SDS011;55557;49.220;11.150;2023-08-06T12:30:34;0.23;;;0.20;;
68583;SDS011;55557;49.220;11.150;2023-08-06T12:33:07;0.20;;;0.20;;
68583;SDS011;55557;49.220;11.150;2023-08-06T12:35:34;0.60;;;0.20;;
68583;SDS011;55557;49.220;11.150;2023-08-06T12:38:00;0.10;;;0.10;;
68583;SDS011;55557;49.220;11.150;2023-08-06T12:40:26;4.20;;;0.50;;
68583;SDS011;55557;49.220;11.150;2023-08-06T12:42:52;0.27;;;0.27;;
68583;SDS011;55557;49.220;11.150;2023-08-06T12:45:19;0.27;;;0.27;;
68583;SDS011;55557;49.220;11.150;2023-08-06T12:47:46;0.20;;;0.20;;
68583;SDS011;55557;49.220;11.150;2023-08-06T12:50:12;0.40;;;0.20;;
68583;SDS011;55557;49.220;11.150;2023-08-06T12:52:39;0.20;;;0.20;;
68583;SDS011;55557;49.220;11.150;2023-08-06T12:55:05;0.20;;;0.17;;
68583;SDS011;55557;49.220;11.150;2023-08-06T12:57:31;0.90;;;0.57;;
68583;SDS011;55557;49.220;11.150;2023-08-06T12:59:58;0.30;;;0.30;;
68583;SDS011;55557;49.220;11.150;2023-08-06T13:02:24;0.70;;;0.60;;
68583;SDS011;55557;49.220;11.150;2023-08-06T13:04:54;0.37;;;0.37;;
68583;SDS011;55557;49.220;11.150;2023-08-06T13:07:20;2.93;;;0.30;;
68583;SDS011;55557;49.220;11.150;2023-08-06T13:09:46;0.30;;;0.30;;
68583;SDS011;55557;49.220;11.150;2023-08-06T13:12:13;0.60;;;0.50;;
68583;SDS011;55557;49.220;11.150;2023-08-06T13:14:39;0.40;;;0.40;;
68583;SDS011;55557;49.220;11.150;2023-08-06T13:17:05;1.77;;;0.40;;
68583;SDS011;55557;49.220;11.150;2023-08-06T13:19:32;0.20;;;0.20;;
68583;SDS011;55557;49.220;11.150;2023-08-06T13:21:59;0.17;;;0.17;;
68583;SDS011;55557;49.220;11.150;2023-08-06T13:24:30;0.50;;;0.50;;
68583;SDS011;55557;49.220;11.150;2023-08-06T13:26:56;0.37;;;0.37;;
68583;SDS011;55557;49.220;11.150;2023-08-06T13:29:22;0.73;;;0.60;;
68583;SDS011;55557;49.220;11.150;2023-08-06T13:31:48;0.40;;;0.40;;
68583;SDS011;55557;49.220;11.150;2023-08-06T13:34:14;0.83;;;0.47;;
68583;SDS011;55557;49.220;11.150;2023-08-06T13:36:41;0.43;;;0.30;;
68583;SDS011;55557;49.220;11.150;2023-08-06T13:39:07;0.30;;;0.30;;
68583;SDS011;55557;49.220;11.150;2023-08-06T13:41:33;1.50;;;0.33;;
68583;SDS011;55557;49.220;11.150;2023-08-06T13:43:59;0.60;;;0.30;;
68583;SDS011;55557;49.220;11.150;2023-08-06T13:46:25;0.57;;;0.30;;
68583;SDS011;55557;49.220;11.150;2023-08-06T13:48:52;0.37;;;0.37;;
68583;SDS011;55557;49.220;11.150;2023-08-06T13:51:18;0.10;;;0.10;;
68583;SDS011;55557;49.220;11.150;2023-08-06T13:53:44;0.10;;;0.10;;
68583;SDS011;55557;49.220;11.150;2023-08-06T13:56:10;0.37;;;0.20;;
68583;SDS011;55557;49.220;11.150;2023-08-06T13:58:37;0.10;;;0.10;;
68583;SDS011;55557;49.220;11.150;2023-08-06T14:01:03;4.00;;;0.27;;
68583;SDS011;55557;49.220;11.150;2023-08-06T14:03:29;2.33;;;0.20;;
68583;SDS011;55557;49.220;11.150;2023-08-06T14:05:55;0.27;;;0.27;;
68583;SDS011;55557;49.220;11.150;2023-08-06T14:08:22;0.20;;;0.20;;
68583;SDS011;55557;49.220;11.150;2023-08-06T14:10:48;0.20;;;0.20;;
68583;SDS011;55557;49.220;11.150;2023-08-06T14:13:14;3.13;;;0.33;;
68583;SDS011;55557;49.220;11.150;2023-08-06T14:15:40;0.30;;;0.30;;
68583;SDS011;55557;49.220;11.150;2023-08-06T14:18:06;0.27;;;0.27;;
68583;SDS011;55557;49.220;11.150;2023-08-06T14:20:35;0.30;;;0.30;;
68583;SDS011;55557;49.220;11.150;2023-08-06T14:23:02;0.30;;;0.30;;
68583;SDS011;55557;49.220;11.150;2023-08-06T14:25:28;1.83;;;0.30;;
68583;SDS011;55557;49.220;11.150;2023-08-06T14:27:54;0.20;;;0.20;;
68583;SDS011;55557;49.220;11.150;2023-08-06T14:30:20;2.00;;;0.67;;
68583;SDS011;55557;49.220;11.150;2023-08-06T14:32:46;2.10;;;0.50;;
68583;SDS011;55557;49.220;11.150;2023-08-06T14:35:12;0.53;;;0.53;;
68583;SDS011;55557;49.220;11.150;2023-08-06T14:37:39;0.60;;;0.60;;